M\t Procida — IBJT — position and weather

sailwx.info

Track history (hours):
 
Tides and Currents Weather Stations Pressure Air Temp Water Temp Dewpoint Dewpoint Depression Visibility Wind Speed Wind Dir Waves Ship Positions

M\t Procida

Last reported at 2014-Oct-31 17:33 UTC. Time now 2014-Oct-31 17:51 UTC.
Position N 43°24' E 004°60'.

Length 149 m; draft 6.3 m.

Type: Ship (hazmat cat A). MMSI: 247258400.

Date/timePositionNaut miles runAvg speedWind from/ knotsBaromVisibWave heightAir tempDewpointWater temp
2014-Oct-31 17:33N 43°24' E 004°60'7 6.8
2014-Oct-31 16:33N 43°17' E 005°00'1111.2
2014-Oct-31 15:33N 43°06' E 004°56'1312.6
2014-Oct-31 14:33N 42°56' E 004°45'1513.1
2014-Oct-31 13:24N 42°45' E 004°31'1212.1
2014-Oct-31 12:27N 42°37' E 004°21'8 8.1
2014-Oct-31 11:29N 42°31' E 004°14'9 8.4
2014-Oct-31 10:22N 42°24' E 004°05'10 8.9
2014-Oct-31 09:13N 42°17' E 003°55'1112.3
2014-Oct-31 08:17N 42°08' E 003°46'1112.3
2014-Oct-31 07:21N 41°59' E 003°35'1113.2
2014-Oct-31 06:31N 41°51' E 003°25'2712.7
2014-Oct-31 04:25N 41°33' E 002°59'3713.0
2014-Oct-31 01:33N 41°13' E 002°17'1313.0
2014-Oct-31 00:33N 41°08' E 002°01'1313.0
2014-Oct-30 23:31N 41°05' E 001°44'1313.1
2014-Oct-30 22:30N 41°03' E 001°27'11 8.9
2014-Oct-30 21:18N 41°05' E 001°13'55 1.2
2014-Oct-28 23:29N 40°12' E 001°01'1111.3
2014-Oct-28 22:33N 40°01' E 000°58'15011.5
2014-Oct-28 09:32N 37°45' W 000°21'1211.8
2014-Oct-28 08:33N 37°35' W 000°29'1111.1
2014-Oct-28 07:33N 37°30' W 000°41'1211.5
2014-Oct-28 06:32N 37°30' W 000°56'8 0.2
2014-Oct-26 17:21N 37°27' W 001°05'21912.3
2014-Oct-25 23:34N 36°03' W 005°18'8 8.0
2014-Oct-25 22:33N 36°10' W 005°23'0 0.0
2014-Oct-25 21:31N 36°10' W 005°23'0 0.0
2014-Oct-25 18:25N 36°10' W 005°23'0 0.0
2014-Oct-25 17:25N 36°10' W 005°23'1 0.9
2014-Oct-25 16:32N 36°11' W 005°24'0 0.0
2014-Oct-24 15:33N 36°11' W 005°24'1 0.5
2014-Oct-24 14:33N 36°10' W 005°23'0 0.0
2014-Oct-24 13:33N 36°10' W 005°23'0 0.0
2014-Oct-24 12:34N 36°10' W 005°23'0 0.0
2014-Oct-24 11:30N 36°10' W 005°23'0 0.0
2014-Oct-24 10:33N 36°10' W 005°23'0 0.1
2014-Oct-24 09:27N 36°10' W 005°23'0 0.0
2014-Oct-24 08:25N 36°10' W 005°23'3 3.4
2014-Oct-24 07:33N 36°07' W 005°24'5 5.1
2014-Oct-24 06:33N 36°03' W 005°20'3 3.4
2014-Oct-24 05:33N 36°04' W 005°16'1 0.5
2014-Oct-24 04:34N 36°04' W 005°16'8 7.7
2014-Oct-24 03:33N 35°59' W 005°23'14 9.6
2014-Oct-24 02:06N 35°55' W 005°39'  
Track history (hours):
 
Tides and Currents Weather Stations Pressure Air Temp Water Temp Dewpoint Dewpoint Depression Visibility Wind Speed Wind Dir Waves Ship Positions

M\t Procida

Last reported at 2014-Oct-31 17:33 UTC. Time now 2014-Oct-31 17:51 UTC.
Position N 43°24' E 004°60'.

Length 149 m; draft 6.3 m.

Type: Ship (hazmat cat A). MMSI: 247258400.

Date/timePositionNaut miles runAvg speedWind from/ knotsBaromVisibWave heightAir tempDewpointWater temp
2014-Oct-31 17:33N 43°24' E 004°60'7 6.8
2014-Oct-31 16:33N 43°17' E 005°00'1111.2
2014-Oct-31 15:33N 43°06' E 004°56'1312.6
2014-Oct-31 14:33N 42°56' E 004°45'1513.1
2014-Oct-31 13:24N 42°45' E 004°31'1212.1
2014-Oct-31 12:27N 42°37' E 004°21'8 8.1
2014-Oct-31 11:29N 42°31' E 004°14'9 8.4
2014-Oct-31 10:22N 42°24' E 004°05'10 8.9
2014-Oct-31 09:13N 42°17' E 003°55'1112.3
2014-Oct-31 08:17N 42°08' E 003°46'1112.3
2014-Oct-31 07:21N 41°59' E 003°35'1113.2
2014-Oct-31 06:31N 41°51' E 003°25'2712.7
2014-Oct-31 04:25N 41°33' E 002°59'3713.0
2014-Oct-31 01:33N 41°13' E 002°17'1313.0
2014-Oct-31 00:33N 41°08' E 002°01'1313.0
2014-Oct-30 23:31N 41°05' E 001°44'1313.1
2014-Oct-30 22:30N 41°03' E 001°27'11 8.9
2014-Oct-30 21:18N 41°05' E 001°13'55 1.2
2014-Oct-28 23:29N 40°12' E 001°01'1111.3
2014-Oct-28 22:33N 40°01' E 000°58'15011.5
2014-Oct-28 09:32N 37°45' W 000°21'1211.8
2014-Oct-28 08:33N 37°35' W 000°29'1111.1
2014-Oct-28 07:33N 37°30' W 000°41'1211.5
2014-Oct-28 06:32N 37°30' W 000°56'8 0.2
2014-Oct-26 17:21N 37°27' W 001°05'21912.3
2014-Oct-25 23:34N 36°03' W 005°18'8 8.0
2014-Oct-25 22:33N 36°10' W 005°23'0 0.0
2014-Oct-25 21:31N 36°10' W 005°23'0 0.0
2014-Oct-25 18:25N 36°10' W 005°23'0 0.0
2014-Oct-25 17:25N 36°10' W 005°23'1 0.9
2014-Oct-25 16:32N 36°11' W 005°24'0 0.0
2014-Oct-24 15:33N 36°11' W 005°24'1 0.5
2014-Oct-24 14:33N 36°10' W 005°23'0 0.0
2014-Oct-24 13:33N 36°10' W 005°23'0 0.0
2014-Oct-24 12:34N 36°10' W 005°23'0 0.0
2014-Oct-24 11:30N 36°10' W 005°23'0 0.0
2014-Oct-24 10:33N 36°10' W 005°23'0 0.1
2014-Oct-24 09:27N 36°10' W 005°23'0 0.0
2014-Oct-24 08:25N 36°10' W 005°23'3 3.4
2014-Oct-24 07:33N 36°07' W 005°24'5 5.1
2014-Oct-24 06:33N 36°03' W 005°20'3 3.4
2014-Oct-24 05:33N 36°04' W 005°16'1 0.5
2014-Oct-24 04:34N 36°04' W 005°16'8 7.7
2014-Oct-24 03:33N 35°59' W 005°23'14 9.6
2014-Oct-24 02:06N 35°55' W 005°39'  

Dump ship's entire track history